createdAt,value
2022-08-22T00:01:03.602Z,7.60
2022-08-22T00:02:45.363Z,5.00
2022-08-22T00:03:07.040Z,7.10
2022-08-22T00:04:01.574Z,7.30
2022-08-22T00:06:54.427Z,6.80
2022-08-22T00:09:29.974Z,7.80
2022-08-22T00:12:08.813Z,6.70
2022-08-22T00:14:53.867Z,6.90
2022-08-22T00:17:34.227Z,7.90
2022-08-22T00:20:28.288Z,7.20
2022-08-22T00:23:12.662Z,6.90
2022-08-22T00:25:59.472Z,6.80
2022-08-22T00:28:53.759Z,6.70
2022-08-22T00:31:22.137Z,7.10
2022-08-22T00:33:53.280Z,6.90
2022-08-22T00:36:32.412Z,6.50
2022-08-22T00:39:24.958Z,8.10
2022-08-22T00:42:07.160Z,6.50
2022-08-22T00:44:44.345Z,6.90
2022-08-22T00:47:38.785Z,7.20
2022-08-22T00:50:36.093Z,7.50
2022-08-22T00:53:35.088Z,6.80
2022-08-22T00:56:32.549Z,6.40
2022-08-22T00:59:25.606Z,7.10
2022-08-22T01:02:32.204Z,6.60
2022-08-22T01:05:22.067Z,6.90
2022-08-22T01:08:15.634Z,7.20
2022-08-22T01:11:01.829Z,8.00
2022-08-22T01:14:04.309Z,7.80
2022-08-22T01:17:05.045Z,7.30
2022-08-22T01:19:49.294Z,6.90
2022-08-22T01:22:41.536Z,8.60
2022-08-22T01:25:22.387Z,7.90
2022-08-22T01:28:02.867Z,7.70
2022-08-22T01:30:49.473Z,7.20
2022-08-22T01:33:38.949Z,8.30
2022-08-22T01:36:28.830Z,8.40
2022-08-22T01:39:02.740Z,8.40
2022-08-22T01:41:52.416Z,7.70
2022-08-22T01:44:26.531Z,7.10
2022-08-22T01:47:14.876Z,7.60
2022-08-22T01:50:13.464Z,8.00
2022-08-22T01:52:51.095Z,8.00
2022-08-22T01:55:24.868Z,7.90
2022-08-22T01:58:19.178Z,8.80
2022-08-22T02:01:29.002Z,7.60
2022-08-22T02:04:11.410Z,7.10
2022-08-22T02:06:46.136Z,9.10
2022-08-22T02:09:38.583Z,9.30
2022-08-22T02:12:42.296Z,8.60
2022-08-22T02:15:17.629Z,8.80
2022-08-22T02:17:54.814Z,8.70
2022-08-22T02:20:35.788Z,8.20
2022-08-22T02:23:23.726Z,8.40
2022-08-22T02:26:01.426Z,8.30
2022-08-22T02:28:56.628Z,8.40
2022-08-22T02:31:39.453Z,8.70
2022-08-22T02:34:34.284Z,8.90
2022-08-22T02:37:13.787Z,9.00
2022-08-22T02:39:46.230Z,9.20
2022-08-22T02:42:49.495Z,9.30
2022-08-22T02:45:59.819Z,8.90
2022-08-22T02:48:44.019Z,9.00
2022-08-22T02:51:19.821Z,9.10
2022-08-22T02:54:39.095Z,10.10
2022-08-22T02:57:14.484Z,9.80
2022-08-22T03:00:31.448Z,10.10
2022-08-22T03:03:26.970Z,10.10
2022-08-22T03:06:03.382Z,10.90
2022-08-22T03:08:53.219Z,11.20
2022-08-22T03:11:35.933Z,10.20
2022-08-22T03:14:12.141Z,9.80
2022-08-22T03:16:49.997Z,10.00
2022-08-22T03:19:23.394Z,8.90
2022-08-22T03:22:16.348Z,10.00
2022-08-22T03:24:56.042Z,9.20
2022-08-22T03:27:32.567Z,8.80
2022-08-22T03:30:16.929Z,11.00
2022-08-22T03:32:59.738Z,10.00
2022-08-22T03:35:28.060Z,8.60
2022-08-22T03:38:20.759Z,10.00
2022-08-22T03:41:19.377Z,9.90
2022-08-22T03:44:02.676Z,10.90
2022-08-22T03:46:52.867Z,10.60
2022-08-22T03:49:46.230Z,10.70
2022-08-22T03:53:02.278Z,9.60
2022-08-22T03:55:49.036Z,9.60
2022-08-22T03:58:50.081Z,10.30
2022-08-22T04:01:39.366Z,10.80
2022-08-22T04:04:19.201Z,10.00
2022-08-22T04:07:31.457Z,11.10
2022-08-22T04:12:56.423Z,10.80
2022-08-22T04:15:36.783Z,10.50
2022-08-22T04:18:42.075Z,10.70
2022-08-22T04:21:48.142Z,10.90
2022-08-22T04:24:42.374Z,10.40
2022-08-22T04:27:35.328Z,11.10
2022-08-22T04:30:03.505Z,11.00
2022-08-22T04:32:36.797Z,11.70
2022-08-22T04:35:30.044Z,11.30
2022-08-22T04:38:20.794Z,10.90
2022-08-22T04:40:55.828Z,10.90
2022-08-22T04:43:33.606Z,11.90
2022-08-22T04:46:36.707Z,11.80
2022-08-22T04:49:13.686Z,11.50
2022-08-22T04:51:50.342Z,11.20
2022-08-22T04:54:42.114Z,11.00
2022-08-22T04:57:32.361Z,11.00
2022-08-22T05:00:04.170Z,12.80
2022-08-22T05:02:37.924Z,12.60
2022-08-22T05:05:14.598Z,13.10
2022-08-22T05:07:48.609Z,11.90
2022-08-22T05:10:21.635Z,11.10
2022-08-22T05:13:00.830Z,12.20
2022-08-22T05:15:37.196Z,10.60
2022-08-22T05:18:10.126Z,11.40
2022-08-22T05:20:41.226Z,9.90
2022-08-22T05:23:19.432Z,9.80
2022-08-22T05:25:51.600Z,10.50
2022-08-22T05:28:37.284Z,9.20
2022-08-22T05:31:13.036Z,9.80
2022-08-22T05:33:52.064Z,9.80
2022-08-22T05:36:27.610Z,9.50
2022-08-22T05:39:12.066Z,8.70
2022-08-22T05:41:41.910Z,9.80
2022-08-22T05:44:21.521Z,8.40
2022-08-22T05:47:04.176Z,8.50
2022-08-22T05:49:45.313Z,9.00
2022-08-22T05:52:22.584Z,9.50
2022-08-22T05:55:00.847Z,10.00
2022-08-22T05:57:47.518Z,9.80
2022-08-22T06:00:22.352Z,9.50
2022-08-22T06:03:33.632Z,9.00
2022-08-22T06:06:19.933Z,8.80
2022-08-22T06:09:06.981Z,8.40
2022-08-22T06:11:51.792Z,8.00
2022-08-22T06:14:40.876Z,8.10
2022-08-22T06:17:15.648Z,7.70
2022-08-22T06:19:48.080Z,7.60
2022-08-22T06:22:27.607Z,7.40
2022-08-22T06:25:13.035Z,7.70
2022-08-22T06:27:43.423Z,7.50
2022-08-22T06:30:15.571Z,7.50
2022-08-22T06:33:00.210Z,8.00
2022-08-22T06:35:55.869Z,8.20
2022-08-22T06:38:29.777Z,8.50
2022-08-22T06:41:07.064Z,8.10
2022-08-22T06:43:42.253Z,8.90
2022-08-22T06:46:12.629Z,8.90
2022-08-22T06:48:41.550Z,8.10
2022-08-22T06:51:12.663Z,8.80
2022-08-22T06:53:51.114Z,8.60
2022-08-22T06:56:25.906Z,8.80
2022-08-22T06:59:00.840Z,9.10
2022-08-22T07:01:39.476Z,8.80
2022-08-22T07:04:10.704Z,8.10
2022-08-22T07:06:47.581Z,7.90
2022-08-22T07:09:38.236Z,8.50
2022-08-22T07:12:32.059Z,9.10
2022-08-22T07:15:19.385Z,7.70
2022-08-22T07:17:57.998Z,8.40
2022-08-22T07:20:50.239Z,6.80
2022-08-22T07:23:31.928Z,8.10
2022-08-22T07:26:08.810Z,8.80
2022-08-22T07:28:51.589Z,8.20
2022-08-22T07:31:35.363Z,9.30
2022-08-22T07:34:23.301Z,7.70
2022-08-22T07:37:12.672Z,8.40
2022-08-22T07:39:56.385Z,7.80
2022-08-22T07:42:49.373Z,8.30
2022-08-22T07:45:56.145Z,7.90
2022-08-22T07:48:30.482Z,9.30
2022-08-22T07:51:05.934Z,9.70
2022-08-22T07:53:50.385Z,9.30
2022-08-22T07:56:23.553Z,9.50
2022-08-22T07:59:00.125Z,9.60
2022-08-22T08:01:29.893Z,9.80
2022-08-22T08:04:09.067Z,10.00
2022-08-22T08:06:37.859Z,10.20
2022-08-22T08:09:09.719Z,10.10
2022-08-22T08:11:42.636Z,9.50
2022-08-22T08:14:14.871Z,10.60
2022-08-22T08:16:51.237Z,10.30
2022-08-22T08:19:20.351Z,10.20
2022-08-22T08:21:53.832Z,11.10
2022-08-22T08:24:31.466Z,9.60
2022-08-22T08:27:32.574Z,11.10
2022-08-22T08:30:21.538Z,11.20
2022-08-22T08:32:59.619Z,9.60
2022-08-22T08:36:02.609Z,9.30
2022-08-22T08:38:48.522Z,11.00
2022-08-22T08:41:34.410Z,11.80
2022-08-22T08:44:30.745Z,11.00
2022-08-22T08:47:31.383Z,10.90
2022-08-22T08:50:50.138Z,10.90
2022-08-22T08:53:49.650Z,11.00
2022-08-22T08:57:00.625Z,12.60
2022-08-22T08:59:45.490Z,10.90
2022-08-22T09:02:38.650Z,11.90
2022-08-22T09:05:20.034Z,11.90
2022-08-22T09:07:55.376Z,13.30
2022-08-22T09:10:57.391Z,11.50
2022-08-22T09:16:12.634Z,12.50
2022-08-22T09:18:59.650Z,12.50
2022-08-22T09:21:37.041Z,12.40
2022-08-22T09:24:41.285Z,14.40
2022-08-22T09:27:36.776Z,15.80
2022-08-22T09:30:27.529Z,16.20
2022-08-22T09:33:12.035Z,13.00
2022-08-22T09:36:05.359Z,14.00
2022-08-22T09:38:34.801Z,12.80
2022-08-22T09:41:18.028Z,12.20
2022-08-22T09:43:59.107Z,13.50
2022-08-22T09:46:36.723Z,13.90
2022-08-22T09:49:45.015Z,14.30
2022-08-22T09:52:42.986Z,13.70
2022-08-22T09:55:36.556Z,14.00
2022-08-22T09:58:41.551Z,12.70
2022-08-22T10:01:33.500Z,13.80
2022-08-22T10:06:46.358Z,12.50
2022-08-22T10:09:31.176Z,14.60
2022-08-22T10:12:12.387Z,11.60
2022-08-22T10:14:56.349Z,12.90
2022-08-22T10:17:41.151Z,12.50
2022-08-22T10:20:18.351Z,12.60
2022-08-22T10:23:01.031Z,14.10
2022-08-22T10:25:48.541Z,12.80
2022-08-22T10:28:20.101Z,12.00
2022-08-22T10:30:52.361Z,11.90
2022-08-22T10:34:04.874Z,12.20
2022-08-22T10:36:54.395Z,11.60
2022-08-22T10:39:56.762Z,12.80
2022-08-22T10:42:51.829Z,13.50
2022-08-22T10:45:35.633Z,12.90
2022-08-22T10:48:10.049Z,11.70
2022-08-22T10:50:44.924Z,13.70
2022-08-22T10:53:34.972Z,14.00
2022-08-22T10:56:03.285Z,14.10
2022-08-22T10:58:37.025Z,13.30
2022-08-22T11:01:37.585Z,12.90
2022-08-22T11:04:17.577Z,13.50
2022-08-22T11:06:55.612Z,12.70
2022-08-22T11:09:42.440Z,14.20
2022-08-22T11:12:44.719Z,13.80
2022-08-22T11:15:16.556Z,14.60
2022-08-22T11:18:25.454Z,14.10
2022-08-22T11:21:05.161Z,13.50
2022-08-22T11:23:41.911Z,13.40
2022-08-22T11:26:46.575Z,13.80
2022-08-22T11:29:36.388Z,12.30
2022-08-22T11:32:15.616Z,13.10
2022-08-22T11:34:55.478Z,13.50
2022-08-22T11:37:45.244Z,12.30
2022-08-22T11:49:14.002Z,13.00
2022-08-22T11:51:44.623Z,12.80
2022-08-22T11:54:21.956Z,12.40
2022-08-22T11:57:17.835Z,12.20
2022-08-22T11:59:45.907Z,12.50
2022-08-22T12:02:27.076Z,12.10
2022-08-22T12:05:03.964Z,10.60
2022-08-22T12:07:38.282Z,12.50
2022-08-22T12:10:13.438Z,11.70
2022-08-22T12:12:58.528Z,11.70
2022-08-22T12:15:37.416Z,11.80
2022-08-22T12:18:12.735Z,11.20
2022-08-22T12:21:09.114Z,11.60
2022-08-22T12:24:05.893Z,11.40
2022-08-22T12:26:42.454Z,12.00
2022-08-22T12:29:40.103Z,12.20
2022-08-22T12:32:49.383Z,11.60
2022-08-22T12:35:29.813Z,10.60
2022-08-22T12:38:26.681Z,9.30
2022-08-22T12:41:34.785Z,9.60
2022-08-22T12:44:17.294Z,10.00
2022-08-22T12:47:04.493Z,9.80
2022-08-22T12:50:01.202Z,9.70
2022-08-22T12:52:44.284Z,10.40
2022-08-22T12:55:25.302Z,10.20
2022-08-22T12:57:59.617Z,9.10
2022-08-22T13:00:40.353Z,9.80
2022-08-22T13:03:53.927Z,9.40
2022-08-22T13:06:35.649Z,9.50
2022-08-22T13:09:18.843Z,10.30
2022-08-22T13:11:51.551Z,9.30
2022-08-22T13:14:26.584Z,10.30
2022-08-22T13:16:59.822Z,8.90
2022-08-22T13:19:33.107Z,9.40
2022-08-22T13:22:03.981Z,9.30
2022-08-22T13:24:52.369Z,9.40
2022-08-22T13:27:32.892Z,8.70
2022-08-22T13:30:12.526Z,9.00
2022-08-22T13:32:45.728Z,8.20
2022-08-22T13:35:41.448Z,8.20
2022-08-22T13:38:35.016Z,8.70
2022-08-22T13:41:08.105Z,6.70
2022-08-22T13:44:15.380Z,8.00
2022-08-22T13:47:13.006Z,7.50
2022-08-22T13:49:51.885Z,7.90
2022-08-22T13:52:38.160Z,7.60
2022-08-22T13:55:23.994Z,6.90
2022-08-22T13:58:04.597Z,7.00
2022-08-22T14:01:14.031Z,7.00
2022-08-22T14:03:48.616Z,6.60
2022-08-22T14:06:32.811Z,5.10
2022-08-22T14:09:38.712Z,5.10
2022-08-22T14:12:12.647Z,5.40
2022-08-22T14:14:46.167Z,5.60
2022-08-22T14:17:31.702Z,5.50
2022-08-22T14:20:11.206Z,5.40
2022-08-22T14:22:43.102Z,6.10
2022-08-22T14:25:23.664Z,5.40
2022-08-22T14:30:54.387Z,4.20
2022-08-22T14:33:39.718Z,4.60
2022-08-22T14:36:43.708Z,4.40
2022-08-22T14:39:28.063Z,5.00
2022-08-22T14:42:10.855Z,5.30
2022-08-22T14:45:06.376Z,4.90
2022-08-22T14:47:55.511Z,4.70
2022-08-22T14:50:49.744Z,5.00
2022-08-22T14:53:22.480Z,4.80
2022-08-22T14:56:17.998Z,5.00
2022-08-22T14:59:00.082Z,5.40
2022-08-22T15:01:32.919Z,6.00
2022-08-22T15:04:09.597Z,5.60
2022-08-22T15:06:51.291Z,5.40
2022-08-22T15:09:25.245Z,5.40
2022-08-22T15:11:53.418Z,5.30
2022-08-22T15:14:25.986Z,5.30
2022-08-22T15:16:56.198Z,5.30
2022-08-22T15:19:27.455Z,5.30
2022-08-22T15:25:02.524Z,5.10
2022-08-22T15:27:34.740Z,5.20
2022-08-22T15:30:20.822Z,5.20
2022-08-22T15:32:49.930Z,4.90
2022-08-22T15:35:31.127Z,4.80
2022-08-22T15:38:05.529Z,5.30
2022-08-22T15:40:34.833Z,4.80
2022-08-22T15:43:26.765Z,5.10
2022-08-22T15:46:31.082Z,5.30
2022-08-22T15:49:22.807Z,4.80
2022-08-22T15:52:00.821Z,4.60
2022-08-22T15:54:51.282Z,5.00
2022-08-22T15:57:28.291Z,5.00
2022-08-22T15:59:58.204Z,4.90
2022-08-22T16:02:56.547Z,5.30
2022-08-22T16:05:40.431Z,4.70
2022-08-22T16:08:33.179Z,5.20
2022-08-22T16:11:04.323Z,4.80
2022-08-22T16:13:42.121Z,4.90
2022-08-22T16:16:12.241Z,5.40
2022-08-22T16:18:40.518Z,4.80
2022-08-22T16:21:11.466Z,5.60
2022-08-22T16:23:51.611Z,5.30
2022-08-22T16:26:31.766Z,6.40
2022-08-22T16:29:00.251Z,5.70
2022-08-22T16:31:28.422Z,6.70
2022-08-22T16:34:16.460Z,6.30
2022-08-22T16:37:08.811Z,6.40
2022-08-22T16:39:46.249Z,9.00
2022-08-22T16:42:14.578Z,7.00
2022-08-22T16:44:54.520Z,10.30
2022-08-22T16:47:52.728Z,12.10
2022-08-22T16:50:38.718Z,10.90
2022-08-22T16:53:06.867Z,11.40
2022-08-22T16:55:39.549Z,12.20
2022-08-22T16:58:27.298Z,11.90
2022-08-22T17:01:30.342Z,12.30
2022-08-22T17:04:17.383Z,12.40
2022-08-22T17:07:04.399Z,13.20
2022-08-22T17:09:47.730Z,13.60
2022-08-22T17:12:15.800Z,13.50
2022-08-22T17:15:06.196Z,14.10
2022-08-22T17:17:46.453Z,14.20
2022-08-22T17:20:37.462Z,14.40
2022-08-22T17:23:31.646Z,14.80
2022-08-22T17:26:20.507Z,13.00
2022-08-22T17:28:57.485Z,13.20
2022-08-22T17:31:50.338Z,13.10
2022-08-22T17:34:38.072Z,12.80
2022-08-22T17:37:29.080Z,13.10
2022-08-22T17:40:16.248Z,11.90
2022-08-22T17:42:57.014Z,11.30
2022-08-22T17:45:29.442Z,11.30
2022-08-22T17:48:15.641Z,11.00
2022-08-22T17:50:54.359Z,11.30
2022-08-22T17:53:42.298Z,11.10
2022-08-22T17:56:44.503Z,11.30
2022-08-22T17:59:20.305Z,11.50
2022-08-22T18:01:51.772Z,11.00
2022-08-22T18:04:24.454Z,11.90
2022-08-22T18:07:16.900Z,11.00
2022-08-22T18:09:55.003Z,12.80
2022-08-22T18:12:54.742Z,13.00
2022-08-22T18:15:32.310Z,12.30
2022-08-22T18:18:13.233Z,12.40
2022-08-22T18:20:51.725Z,11.60
2022-08-22T18:23:35.635Z,12.50
2022-08-22T18:26:42.524Z,11.10
2022-08-22T18:29:18.890Z,10.50
2022-08-22T18:32:33.145Z,10.80
2022-08-22T18:35:10.330Z,10.60
2022-08-22T18:38:19.438Z,10.50
2022-08-22T18:41:12.727Z,10.20
2022-08-22T18:43:48.479Z,11.50
2022-08-22T18:46:26.483Z,11.90
2022-08-22T18:49:14.597Z,12.80
2022-08-22T18:51:43.694Z,13.80
2022-08-22T18:54:11.793Z,13.10
2022-08-22T18:56:39.864Z,13.50
2022-08-22T18:59:56.886Z,14.00
2022-08-22T19:02:27.924Z,13.00
2022-08-22T19:05:01.730Z,15.30
2022-08-22T19:07:52.896Z,15.40
2022-08-22T19:10:48.924Z,14.00
2022-08-22T19:13:49.507Z,13.50
2022-08-22T19:16:32.790Z,15.00
2022-08-22T19:19:17.566Z,12.30
2022-08-22T19:22:19.768Z,14.00
2022-08-22T19:25:10.572Z,14.10
2022-08-22T19:28:10.901Z,12.60
2022-08-22T19:30:49.519Z,14.30
2022-08-22T19:33:19.947Z,13.90
2022-08-22T19:35:56.721Z,13.70
2022-08-22T19:38:57.256Z,14.10
2022-08-22T19:41:45.522Z,14.00
2022-08-22T19:44:19.306Z,13.90
2022-08-22T19:46:59.357Z,14.00
2022-08-22T19:49:32.141Z,13.50
2022-08-22T19:52:12.202Z,13.40
2022-08-22T19:55:05.556Z,14.20
2022-08-22T19:58:05.269Z,13.00
2022-08-22T20:00:53.693Z,13.30
2022-08-22T20:03:59.578Z,12.00
2022-08-22T20:06:44.982Z,12.80
2022-08-22T20:09:38.822Z,14.40
2022-08-22T20:12:42.790Z,14.50
2022-08-22T20:15:23.716Z,13.00
2022-08-22T20:20:58.497Z,13.80
2022-08-22T20:23:32.480Z,13.90
2022-08-22T20:26:01.403Z,15.10
2022-08-22T20:28:47.567Z,14.80
2022-08-22T20:31:23.724Z,14.10
2022-08-22T20:34:16.114Z,14.10
2022-08-22T20:36:52.735Z,14.60
2022-08-22T20:39:39.680Z,15.40
2022-08-22T20:42:13.559Z,14.30
2022-08-22T20:44:53.775Z,14.70
2022-08-22T20:47:34.135Z,15.50
2022-08-22T20:50:12.260Z,15.70
2022-08-22T20:55:31.619Z,16.20
2022-08-22T20:58:04.250Z,16.60
2022-08-22T21:00:46.814Z,15.00
2022-08-22T21:03:17.901Z,16.50
2022-08-22T21:05:46.588Z,16.50
2022-08-22T21:08:19.883Z,17.20
2022-08-22T21:11:21.440Z,17.70
2022-08-22T21:13:50.892Z,17.40
2022-08-22T21:16:31.649Z,16.90
2022-08-22T21:19:01.935Z,17.90
2022-08-22T21:21:33.693Z,16.40
2022-08-22T21:24:06.011Z,16.80
2022-08-22T21:26:46.322Z,17.20
2022-08-22T21:29:14.414Z,16.60
2022-08-22T21:31:51.681Z,17.80
2022-08-22T21:34:25.078Z,17.50
2022-08-22T21:36:58.110Z,18.90
2022-08-22T21:39:36.275Z,17.10
2022-08-22T21:42:04.346Z,17.50
2022-08-22T21:44:35.591Z,17.60
2022-08-22T21:47:32.437Z,17.80
2022-08-22T21:50:12.814Z,15.70
2022-08-22T21:52:44.895Z,17.20
2022-08-22T21:55:24.211Z,17.50
2022-08-22T21:58:36.972Z,16.20
2022-08-22T22:01:28.179Z,17.10
2022-08-22T22:03:59.294Z,16.00
2022-08-22T22:06:27.919Z,16.70
2022-08-22T22:08:56.101Z,15.00
2022-08-22T22:11:24.150Z,16.00
2022-08-22T22:13:52.482Z,16.00
2022-08-22T22:16:26.108Z,15.50
2022-08-22T22:18:55.001Z,15.60
2022-08-22T22:21:23.249Z,15.40
2022-08-22T22:23:51.424Z,14.60
2022-08-22T22:26:21.247Z,15.70
2022-08-22T22:28:50.549Z,16.40
2022-08-22T22:31:18.963Z,15.80
2022-08-22T22:33:47.138Z,16.20
2022-08-22T22:36:22.684Z,14.70
2022-08-22T22:38:52.912Z,12.70
2022-08-22T22:41:25.786Z,11.70
2022-08-22T22:43:55.152Z,12.00
2022-08-22T22:46:24.398Z,11.80
2022-08-22T22:48:52.975Z,10.70
2022-08-22T22:51:21.407Z,11.30
2022-08-22T22:53:49.987Z,10.30
2022-08-22T22:56:22.494Z,10.70
2022-08-22T22:59:00.704Z,11.30
2022-08-22T23:02:07.661Z,11.10
2022-08-22T23:04:38.935Z,11.00
2022-08-22T23:07:09.129Z,11.90
2022-08-22T23:09:44.581Z,10.90
2022-08-22T23:12:14.762Z,10.80
2022-08-22T23:14:43.786Z,11.10
2022-08-22T23:17:12.677Z,11.40
2022-08-22T23:19:41.159Z,10.70
2022-08-22T23:22:11.073Z,10.40
2022-08-22T23:24:40.505Z,11.40
2022-08-22T23:27:10.493Z,10.70
2022-08-22T23:29:41.329Z,10.50
2022-08-22T23:32:11.187Z,11.30
2022-08-22T23:34:48.951Z,10.50
2022-08-22T23:37:21.519Z,11.20
2022-08-22T23:39:50.291Z,11.10
2022-08-22T23:42:19.201Z,10.50
2022-08-22T23:44:48.908Z,11.30
2022-08-22T23:47:18.515Z,11.00
2022-08-22T23:49:46.895Z,10.90
2022-08-22T23:52:15.017Z,10.80
2022-08-22T23:54:43.243Z,12.10
2022-08-22T23:57:12.056Z,10.80
2022-08-22T23:59:48.491Z,10.90
